Time;durP1;ratioP1;P1;durP2;ratioP2;P2;SDS_P1;SDS_P2;PMS_P1;PMS_P2;Temp;Humidity;BMP_temperature;BMP_pressure;BME280_temperature;BME280_humidity;BME280_pressure;Samples;Min_cycle;Max_cycle;Signal;HPM_P1;HPM_P2
2024/02/12 00:01:48;;;;;;;2.08;1.30;;;10.90;99.90;;;;;;6247674;22;20007;-75
2024/02/12 00:05:10;;;;;;;6.80;1.48;;;10.90;99.90;;;;;;6247397;22;20031;-74
2024/02/12 00:08:04;;;;;;;2.47;1.45;;;10.90;99.90;;;;;;6105424;23;20082;-75
2024/02/12 00:28:34;;;;;;;8.60;1.50;;;10.80;99.90;;;;;;6057932;23;20038;-75
2024/02/12 00:31:00;;;;;;;2.05;1.50;;;10.80;99.90;;;;;;6052147;23;20007;-74
2024/02/12 00:33:28;;;;;;;1.98;1.63;;;10.80;99.90;;;;;;6219442;22;20315;-75
2024/02/12 00:35:54;;;;;;;6.90;2.03;;;10.80;99.90;;;;;;6246786;22;19996;-75
2024/02/12 00:38:20;;;;;;;5.53;2.60;;;10.70;99.90;;;;;;6246723;22;20004;-75
2024/02/12 00:40:46;;;;;;;4.40;2.53;;;10.70;99.90;;;;;;6246813;23;20046;-75
2024/02/12 00:43:12;;;;;;;3.97;2.63;;;10.70;99.90;;;;;;6245193;23;20000;-75
2024/02/12 00:45:41;;;;;;;4.45;2.33;;;10.70;99.90;;;;;;6246556;22;20000;-75
2024/02/12 00:48:08;;;;;;;5.45;2.97;;;10.70;99.90;;;;;;6246372;22;19996;-75
2024/02/12 00:50:35;;;;;;;3.35;2.20;;;10.70;99.90;;;;;;6246421;22;20004;-75
2024/02/12 00:53:03;;;;;;;3.83;2.47;;;10.70;99.90;;;;;;6246589;22;20011;-75
2024/02/12 00:55:29;;;;;;;8.70;3.00;;;10.70;99.90;;;;;;6246293;23;20089;-75
2024/02/12 00:57:55;;;;;;;4.63;2.50;;;10.70;99.90;;;;;;6244930;23;20427;-75
2024/02/12 01:00:22;;;;;;;5.18;2.85;;;10.70;99.90;;;;;;6246489;22;20414;-74
2024/02/12 01:02:48;;;;;;;5.78;3.45;;;10.60;99.90;;;;;;6246678;22;20011;-75
2024/02/12 01:05:14;;;;;;;5.72;3.13;;;10.60;99.90;;;;;;6246385;23;20076;-75
2024/02/12 01:07:41;;;;;;;3.95;2.50;;;10.60;99.90;;;;;;6246389;22;19996;-75
2024/02/12 01:10:07;;;;;;;4.25;2.22;;;10.60;99.90;;;;;;6246156;23;20046;-75
2024/02/12 01:12:35;;;;;;;4.07;1.70;;;10.50;99.90;;;;;;6246010;22;20166;-74
2024/02/12 01:15:02;;;;;;;3.97;1.83;;;10.50;99.90;;;;;;6246221;23;20015;-75
2024/02/12 01:17:29;;;;;;;3.10;1.75;;;10.50;99.90;;;;;;6244790;23;20427;-75
2024/02/12 01:19:55;;;;;;;2.38;1.58;;;10.50;99.90;;;;;;6246450;22;19996;-75
2024/02/12 01:22:21;;;;;;;3.90;1.80;;;10.50;99.90;;;;;;6246138;22;20071;-75
2024/02/12 01:24:49;;;;;;;2.40;1.38;;;10.50;99.90;;;;;;6245963;22;20004;-75
2024/02/12 01:27:15;;;;;;;2.67;1.60;;;10.40;99.90;;;;;;6246155;22;20003;-75
2024/02/12 01:29:42;;;;;;;4.90;1.67;;;10.40;99.90;;;;;;6246197;23;20008;-74
2024/02/12 01:32:09;;;;;;;2.60;1.77;;;10.40;99.90;;;;;;6246342;22;20003;-74
2024/02/12 01:34:36;;;;;;;3.78;2.25;;;10.40;99.90;;;;;;6246276;22;20338;-74
2024/02/12 01:37:02;;;;;;;4.55;2.42;;;10.30;99.90;;;;;;6247193;22;20054;-74
2024/02/12 01:39:28;;;;;;;5.47;2.47;;;10.40;99.90;;;;;;6247003;22;20074;-74
2024/02/12 01:41:54;;;;;;;4.05;2.20;;;10.30;99.90;;;;;;6246929;22;20385;-75
2024/02/12 01:44:20;;;;;;;4.20;2.35;;;10.30;99.90;;;;;;6246381;23;20027;-74
2024/02/12 02:12:03;;;;;;;2.17;1.60;;;10.30;99.90;;;;;;6064004;23;20018;-74
2024/02/12 02:14:30;;;;;;;4.68;1.65;;;10.30;99.90;;;;;;6094419;23;20392;-75
2024/02/12 02:16:56;;;;;;;5.32;3.13;;;10.30;99.90;;;;;;6199859;23;20007;-75
2024/02/12 02:19:23;;;;;;;5.15;2.40;;;10.20;99.90;;;;;;6245122;23;20004;-75
2024/02/12 02:21:51;;;;;;;2.83;1.80;;;10.20;99.90;;;;;;6245098;23;20000;-75
2024/02/12 02:24:18;;;;;;;3.00;1.55;;;10.20;99.90;;;;;;6245239;23;20015;-75
2024/02/12 02:26:44;;;;;;;7.75;2.40;;;10.20;99.90;;;;;;6218573;23;20010;-75
2024/02/12 02:29:12;;;;;;;4.72;2.30;;;10.20;99.90;;;;;;6218023;23;20004;-74
2024/02/12 02:31:38;;;;;;;7.53;1.60;;;10.20;99.90;;;;;;6218112;23;20322;-75
2024/02/12 02:34:04;;;;;;;3.08;1.50;;;10.20;99.90;;;;;;6217646;23;20050;-75
2024/02/12 02:36:30;;;;;;;2.75;1.45;;;10.20;99.90;;;;;;6244444;23;20000;-74
2024/02/12 02:39:01;;;;;;;2.75;1.38;;;10.20;99.90;;;;;;6245491;23;20008;-74
2024/02/12 02:41:28;;;;;;;5.22;1.50;;;10.20;99.90;;;;;;6245100;23;20011;-74
2024/02/12 02:43:54;;;;;;;4.53;1.35;;;10.20;99.90;;;;;;6245651;23;20057;-74
2024/02/12 02:46:26;;;;;;;2.72;0.90;;;10.20;99.90;;;;;;6245510;23;20004;-74
2024/02/12 02:48:57;;;;;;;3.60;1.15;;;10.20;99.90;;;;;;6245335;23;20423;-74
2024/02/12 02:51:29;;;;;;;5.57;1.23;;;10.20;99.90;;;;;;6245327;23;20000;-74
2024/02/12 02:53:55;;;;;;;2.47;1.27;;;10.20;99.90;;;;;;6245043;23;20335;-75
2024/02/12 02:56:22;;;;;;;1.50;0.90;;;10.20;99.90;;;;;;6241898;23;20019;-75
2024/02/12 02:58:50;;;;;;;1.95;0.90;;;10.20;99.90;;;;;;6245077;22;20015;-74
2024/02/12 03:01:20;;;;;;;2.55;1.30;;;10.30;99.90;;;;;;6245093;22;20028;-75
2024/02/12 03:03:52;;;;;;;4.00;1.00;;;10.30;99.90;;;;;;6245280;22;20050;-75
2024/02/12 03:06:23;;;;;;;2.33;1.10;;;10.20;99.90;;;;;;6243694;23;20462;-75
2024/02/12 03:08:49;;;;;;;2.92;1.23;;;10.30;99.90;;;;;;6245238;22;20011;-75
2024/02/12 03:11:26;;;;;;;0.95;0.77;;;10.30;99.90;;;;;;6245469;22;20331;-75
2024/02/12 03:13:52;;;;;;;4.45;1.90;;;10.30;99.90;;;;;;6245239;22;20062;-75
2024/02/12 03:16:18;;;;;;;1.23;1.00;;;10.20;99.90;;;;;;6246411;22;20000;-75
2024/02/12 03:18:45;;;;;;;1.48;0.80;;;10.30;99.90;;;;;;6248122;22;20011;-75
2024/02/12 03:21:12;;;;;;;2.53;1.00;;;10.20;99.90;;;;;;6247811;22;20326;-74
2024/02/12 03:23:41;;;;;;;3.95;0.95;;;10.20;99.90;;;;;;6248014;22;20011;-75
2024/02/12 03:26:08;;;;;;;1.60;0.98;;;10.30;99.90;;;;;;6248109;23;20001;-75
2024/02/12 03:29:33;;;;;;;;;;;;;;;;;;;;;
2024/02/12 03:35:39;;;;;;;3.33;1.08;;;10.20;99.90;;;;;;6161872;23;20027;-75
2024/02/12 03:45:44;;;;;;;3.47;2.10;;;10.20;99.90;;;;;;6094788;23;20134;-75
2024/02/12 04:00:44;;;;;;;3.75;3.05;;;10.20;99.90;;;;;;6102670;23;20062;-74
2024/02/12 04:03:10;;;;;;;5.93;3.25;;;10.10;99.90;;;;;;6216963;23;20000;-74
2024/02/12 04:05:36;;;;;;;7.30;3.17;;;10.10;99.90;;;;;;6216353;23;20004;-74
2024/02/12 04:08:04;;;;;;;5.43;3.33;;;10.10;99.90;;;;;;6216779;23;20004;-75
2024/02/12 04:10:31;;;;;;;5.40;3.30;;;10.20;99.90;;;;;;6216714;23;20096;-75
2024/02/12 04:12:57;;;;;;;4.93;3.10;;;10.20;99.90;;;;;;6216327;23;20035;-74
2024/02/12 04:15:23;;;;;;;4.57;3.03;;;10.10;99.90;;;;;;6216556;23;20431;-75
2024/02/12 04:17:50;;;;;;;3.15;2.67;;;10.20;99.90;;;;;;6189922;23;20009;-74
2024/02/12 04:20:17;;;;;;;5.75;2.78;;;10.20;99.90;;;;;;6216416;23;20000;-75
2024/02/12 04:22:47;;;;;;;7.20;2.80;;;10.20;99.90;;;;;;6216458;23;20497;-75
2024/02/12 04:25:13;;;;;;;4.47;3.65;;;10.10;99.90;;;;;;6216283;23;20031;-75
2024/02/12 04:27:41;;;;;;;4.80;4.38;;;10.20;99.90;;;;;;6216078;23;20008;-75
2024/02/12 04:30:10;;;;;;;10.15;4.05;;;10.10;99.90;;;;;;6215981;23;19997;-75
2024/02/12 04:32:36;;;;;;;5.47;4.00;;;10.10;99.90;;;;;;6216147;23;20005;-75
2024/02/12 04:35:03;;;;;;;7.22;3.78;;;10.10;99.90;;;;;;6215982;23;20015;-75
2024/02/12 04:37:30;;;;;;;9.32;3.40;;;10.10;99.90;;;;;;6216122;23;20423;-75
2024/02/12 04:39:56;;;;;;;4.00;3.20;;;10.10;99.90;;;;;;6216174;23;20078;-74
2024/02/12 04:42:22;;;;;;;4.97;3.30;;;10.10;99.90;;;;;;6216326;23;20001;-74
2024/02/12 04:44:48;;;;;;;6.63;3.15;;;10.10;99.90;;;;;;6216196;23;20000;-74
2024/02/12 04:47:14;;;;;;;6.35;3.45;;;10.10;99.90;;;;;;6215971;23;20426;-74
2024/02/12 04:49:40;;;;;;;4.00;2.97;;;10.10;99.90;;;;;;6216156;23;20005;-75
2024/02/12 04:52:06;;;;;;;4.00;3.53;;;10.10;99.90;;;;;;6216083;23;20001;-74
2024/02/12 04:54:34;;;;;;;4.57;3.17;;;10.10;99.90;;;;;;6215908;23;20049;-75
2024/02/12 04:57:00;;;;;;;3.80;3.28;;;10.10;99.90;;;;;;6230371;23;20008;-75
2024/02/12 04:59:26;;;;;;;4.53;2.92;;;10.20;99.90;;;;;;6245937;22;20067;-75
2024/02/12 05:01:54;;;;;;;5.95;3.15;;;10.10;99.90;;;;;;6245980;22;20003;-75
2024/02/12 05:04:20;;;;;;;7.75;3.10;;;10.10;99.90;;;;;;6247368;23;20000;-74
2024/02/12 05:06:46;;;;;;;6.75;3.97;;;10.10;99.90;;;;;;6246899;22;20004;-74
2024/02/12 05:09:15;;;;;;;6.55;4.68;;;10.10;99.90;;;;;;6246642;22;20006;-74
2024/02/12 05:11:55;;;;;;;8.25;3.85;;;10.10;99.90;;;;;;6246633;23;20004;-74
2024/02/12 05:14:39;;;;;;;7.22;3.95;;;10.10;99.90;;;;;;6246417;22;20015;-74
2024/02/12 05:34:04;;;;;;;5.50;3.22;;;10.00;99.90;;;;;;6094037;23;20030;-74
2024/02/12 05:37:12;;;;;;;7.85;4.57;;;10.00;99.90;;;;;;6179298;23;20451;-75
2024/02/12 05:39:47;;;;;;;8.57;5.22;;;10.00;99.90;;;;;;6181856;23;20332;-74
2024/02/12 05:42:13;;;;;;;19.08;6.35;;;10.00;99.90;;;;;;6183061;23;20034;-74
2024/02/12 05:44:40;;;;;;;10.27;4.88;;;10.00;99.90;;;;;;6241112;23;20304;-74
2024/02/12 05:47:06;;;;;;;6.85;4.57;;;10.00;99.90;;;;;;6245624;22;20331;-75
2024/02/12 05:49:35;;;;;;;6.50;3.90;;;10.00;99.90;;;;;;6244412;23;20004;-74
2024/02/12 05:52:03;;;;;;;5.20;3.65;;;9.90;99.90;;;;;;6245906;23;20076;-74
2024/02/12 05:54:29;;;;;;;5.70;3.30;;;9.90;99.90;;;;;;6245939;22;20019;-74
2024/02/12 05:56:54;;;;;;;4.70;3.33;;;9.90;99.90;;;;;;6245749;23;20339;-75
2024/02/12 05:59:20;;;;;;;4.00;3.17;;;10.00;99.90;;;;;;6245942;22;20000;-75
2024/02/12 06:01:46;;;;;;;5.43;3.30;;;9.90;99.90;;;;;;6245652;22;20007;-74
2024/02/12 06:04:12;;;;;;;6.43;3.75;;;9.90;99.90;;;;;;6245923;22;20028;-74
2024/02/12 06:06:39;;;;;;;5.70;3.60;;;9.90;99.90;;;;;;6245761;22;20439;-75
2024/02/12 06:09:06;;;;;;;6.35;3.38;;;9.90;99.90;;;;;;6245913;22;20025;-74
2024/02/12 06:11:41;;;;;;;5.57;2.97;;;9.90;99.90;;;;;;5091079;27;20700;-74
2024/02/12 06:14:07;;;;;;;5.65;2.85;;;9.90;99.90;;;;;;5090406;28;20051;-75
2024/02/12 06:16:33;;;;;;;7.20;3.08;;;9.90;99.90;;;;;;5090351;28;20115;-75
2024/02/12 06:19:01;;;;;;;5.05;2.92;;;9.90;99.90;;;;;;5089965;28;20056;-75
2024/02/12 06:21:27;;;;;;;4.18;2.88;;;9.90;99.90;;;;;;5072268;28;20495;-75
2024/02/12 06:23:53;;;;;;;7.88;3.03;;;9.90;99.90;;;;;;5089985;28;20036;-75
2024/02/12 06:26:19;;;;;;;7.68;4.07;;;9.90;99.90;;;;;;5089849;28;20024;-75
2024/02/12 06:28:50;;;;;;;6.50;3.53;;;9.90;99.90;;;;;;5090060;28;20081;-75
2024/02/12 06:31:16;;;;;;;8.10;3.80;;;9.90;99.90;;;;;;5089653;28;20032;-74
2024/02/12 06:33:42;;;;;;;8.10;3.78;;;9.90;99.90;;;;;;5089762;28;20028;-73
2024/02/12 06:36:08;;;;;;;6.50;3.30;;;9.90;99.90;;;;;;5089662;28;20024;-74
2024/02/12 06:38:34;;;;;;;5.35;3.10;;;9.90;99.90;;;;;;5089116;28;20448;-74
2024/02/12 06:41:00;;;;;;;6.38;2.90;;;9.90;99.90;;;;;;5087622;28;20020;-74
2024/02/12 06:43:26;;;;;;;7.90;3.20;;;10.00;99.90;;;;;;5104622;28;20021;-74
2024/02/12 06:45:53;;;;;;;3.63;2.67;;;10.00;99.90;;;;;;5090141;28;20029;-74
2024/02/12 06:48:18;;;;;;;3.88;3.00;;;10.00;99.90;;;;;;5090385;28;20059;-74
2024/02/12 06:50:44;;;;;;;7.43;2.90;;;10.00;99.90;;;;;;5089940;28;20063;-74
2024/02/12 06:53:11;;;;;;;3.35;2.60;;;10.00;99.90;;;;;;5088895;28;20021;-74
2024/02/12 06:55:40;;;;;;;6.20;2.92;;;10.00;99.90;;;;;;5089550;28;20486;-74
2024/02/12 06:58:36;;;;;;;4.20;3.03;;;10.00;99.90;;;;;;5089410;28;20340;-74
2024/02/12 07:18:09;;;;;;;8.55;3.03;;;10.00;99.90;;;;;;5032777;28;20044;-76
2024/02/12 07:24:25;;;;;;;3.35;2.55;;;10.10;99.90;;;;;;5020515;28;20047;-74
2024/02/12 07:26:52;;;;;;;4.57;2.78;;;10.00;99.90;;;;;;5055035;28;20461;-73
2024/02/12 07:29:18;;;;;;;4.10;3.50;;;10.00;99.90;;;;;;5055168;28;20424;-73
2024/02/12 07:31:44;;;;;;;6.03;5.05;;;10.00;99.90;;;;;;5054876;28;20037;-74
2024/02/12 07:34:09;;;;;;;10.82;5.25;;;10.10;99.90;;;;;;5054817;28;20376;-73
2024/02/12 07:36:44;;;;;;;9.27;5.90;;;10.10;99.90;;;;;;5055211;28;20105;-73
2024/02/12 07:39:11;;;;;;;6.20;5.28;;;10.10;99.90;;;;;;5055235;28;20040;-73
2024/02/12 07:41:40;;;;;;;5.55;5.00;;;10.10;99.90;;;;;;5054993;28;20020;-74
2024/02/12 07:44:06;;;;;;;8.43;5.10;;;10.10;99.90;;;;;;5037352;28;20431;-74
2024/02/12 07:46:32;;;;;;;9.43;5.57;;;10.10;99.90;;;;;;5075233;28;20405;-73
2024/02/12 07:48:58;;;;;;;8.20;5.13;;;10.10;99.90;;;;;;5074612;28;20504;-75
2024/02/12 07:51:26;;;;;;;6.28;5.07;;;10.20;99.90;;;;;;5074986;28;20029;-74
2024/02/12 07:53:52;;;;;;;9.63;4.47;;;10.20;99.90;;;;;;5074819;28;20024;-74
2024/02/12 07:56:18;;;;;;;7.47;2.90;;;10.20;99.90;;;;;;5074756;28;20032;-74
2024/02/12 07:58:44;;;;;;;6.00;2.80;;;10.20;99.90;;;;;;5074950;28;20017;-74
2024/02/12 08:01:10;;;;;;;3.90;2.72;;;10.20;99.90;;;;;;5073636;28;20031;-74
2024/02/12 08:03:36;;;;;;;5.93;2.65;;;10.30;99.90;;;;;;5072027;28;20024;-74
2024/02/12 08:06:02;;;;;;;3.22;2.33;;;10.30;99.90;;;;;;5072216;28;20035;-73
2024/02/12 08:08:27;;;;;;;5.53;2.63;;;10.30;99.90;;;;;;5074789;28;20056;-75
2024/02/12 08:10:53;;;;;;;7.93;3.33;;;10.30;99.90;;;;;;5074739;28;20029;-74
2024/02/12 08:13:19;;;;;;;5.65;3.15;;;10.30;99.90;;;;;;5074781;28;20024;-74
2024/02/12 08:15:45;;;;;;;6.18;3.75;;;10.30;99.90;;;;;;5074431;28;20119;-74
2024/02/12 08:18:12;;;;;;;7.03;3.10;;;10.40;99.90;;;;;;5074408;28;20078;-75
2024/02/12 08:20:38;;;;;;;4.72;3.20;;;10.40;99.90;;;;;;5074637;28;20417;-74
2024/02/12 08:23:04;;;;;;;6.18;2.78;;;10.40;99.90;;;;;;5074322;28;20107;-74
2024/02/12 08:25:29;;;;;;;3.75;2.33;;;10.40;99.90;;;;;;5074235;28;20070;-74
2024/02/12 08:27:56;;;;;;;9.55;2.60;;;10.40;99.90;;;;;;5074292;28;20032;-74
2024/02/12 08:30:22;;;;;;;3.60;2.00;;;10.40;99.90;;;;;;5075095;28;20115;-73
2024/02/12 08:32:48;;;;;;;4.55;1.92;;;10.40;99.90;;;;;;5074208;28;20047;-74
2024/02/12 08:35:14;;;;;;;7.88;2.00;;;10.50;99.90;;;;;;5056660;28;20052;-74
2024/02/12 08:37:40;;;;;;;3.10;2.10;;;10.50;99.90;;;;;;5074954;28;20086;-74
2024/02/12 08:50:31;;;;;;;4.47;2.30;;;10.50;99.90;;;;;;5012950;28;20054;-72
2024/02/12 08:52:57;;;;;;;8.23;1.80;;;10.60;99.90;;;;;;4996521;28;20022;-72
2024/02/12 08:55:23;;;;;;;3.33;1.80;;;10.60;99.90;;;;;;5013823;28;20037;-71
2024/02/12 08:57:48;;;;;;;4.85;2.00;;;10.60;99.90;;;;;;5013843;28;20024;-72
2024/02/12 09:00:21;;;;;;;2.90;1.85;;;10.70;99.90;;;;;;5014178;28;20018;-72
2024/02/12 09:02:47;;;;;;;3.33;1.60;;;10.70;99.90;;;;;;5014195;28;20022;-72
2024/02/12 09:05:13;;;;;;;2.33;1.52;;;10.70;99.90;;;;;;5014099;28;20540;-71
2024/02/12 09:07:40;;;;;;;4.10;1.85;;;10.80;99.90;;;;;;5014125;28;20025;-72
2024/02/12 09:10:07;;;;;;;3.33;2.45;;;10.80;99.90;;;;;;5013837;28;20405;-71
2024/02/12 09:12:39;;;;;;;8.40;3.50;;;10.80;99.90;;;;;;5013966;28;20085;-72
2024/02/12 09:15:10;;;;;;;4.55;2.80;;;10.90;99.90;;;;;;5013757;28;20026;-72
2024/02/12 09:17:36;;;;;;;7.55;3.20;;;10.90;99.90;;;;;;5013389;28;20022;-70
2024/02/12 09:20:02;;;;;;;8.40;3.40;;;10.90;99.90;;;;;;5013870;28;20390;-72
2024/02/12 09:22:29;;;;;;;5.07;3.38;;;11.00;99.90;;;;;;5013874;28;20030;-72
2024/02/12 09:24:55;;;;;;;7.28;3.75;;;11.00;99.90;;;;;;5013672;28;20083;-72
2024/02/12 09:27:22;;;;;;;5.53;3.83;;;11.00;99.90;;;;;;5013416;28;20101;-73
2024/02/12 09:29:47;;;;;;;5.00;3.78;;;11.00;99.90;;;;;;5013678;28;20503;-72
2024/02/12 09:32:14;;;;;;;5.93;4.25;;;11.00;99.90;;;;;;5013594;28;20123;-73
2024/02/12 09:34:41;;;;;;;6.28;4.28;;;11.10;99.90;;;;;;5013587;28;20493;-73
2024/02/12 09:37:06;;;;;;;4.65;3.60;;;11.10;99.90;;;;;;5013753;28;20033;-73
2024/02/12 09:39:34;;;;;;;6.97;4.47;;;11.10;99.90;;;;;;5013622;28;20022;-72
2024/02/12 09:42:01;;;;;;;8.38;3.20;;;11.10;99.90;;;;;;5013155;28;20512;-73
2024/02/12 09:44:29;;;;;;;5.85;3.20;;;11.10;99.90;;;;;;5013144;28;20026;-72
2024/02/12 09:47:04;;;;;;;5.60;3.03;;;11.20;99.90;;;;;;5012123;28;20441;-73
2024/02/12 09:49:31;;;;;;;4.32;3.10;;;11.20;99.90;;;;;;5013025;28;20050;-73
2024/02/12 09:51:58;;;;;;;5.93;3.30;;;11.20;99.90;;;;;;5013364;28;20026;-71
2024/02/12 09:54:23;;;;;;;5.28;3.45;;;11.20;99.90;;;;;;5013300;28;20026;-73
2024/02/12 09:56:50;;;;;;;5.05;3.20;;;11.20;99.90;;;;;;5013356;28;20026;-73
2024/02/12 09:59:16;;;;;;;5.82;3.00;;;11.20;99.90;;;;;;5013697;28;20030;-71
2024/02/12 10:01:42;;;;;;;5.50;3.00;;;11.30;99.90;;;;;;5013495;28;20033;-73
2024/02/12 10:04:08;;;;;;;5.82;3.63;;;11.30;99.90;;;;;;5012611;28;20088;-71
2024/02/12 10:06:34;;;;;;;7.35;4.25;;;11.30;99.90;;;;;;5013048;28;20030;-73
2024/02/12 10:09:07;;;;;;;4.32;3.30;;;11.30;99.90;;;;;;5012581;28;20478;-71
2024/02/12 10:11:33;;;;;;;7.13;3.78;;;11.30;99.90;;;;;;5013096;28;20048;-73
2024/02/12 10:14:04;;;;;;;4.95;3.38;;;11.30;99.90;;;;;;5012626;28;20429;-71
2024/02/12 10:16:31;;;;;;;8.48;3.20;;;11.30;99.90;;;;;;5012793;28;20022;-73
2024/02/12 10:19:00;;;;;;;7.90;3.75;;;11.30;99.90;;;;;;5012929;28;20414;-72
2024/02/12 10:21:26;;;;;;;7.00;3.22;;;11.30;99.90;;;;;;5013153;28;20056;-73
2024/02/12 10:23:52;;;;;;;5.82;3.50;;;11.30;99.90;;;;;;5013064;28;20452;-72
2024/02/12 10:26:22;;;;;;;6.57;3.65;;;11.30;99.90;;;;;;5012818;28;20030;-73
2024/02/12 10:28:54;;;;;;;6.55;3.85;;;11.30;99.90;;;;;;5012787;28;20022;-72
2024/02/12 10:31:22;;;;;;;8.07;3.83;;;11.30;99.90;;;;;;5011571;28;20042;-72
2024/02/12 10:33:48;;;;;;;5.13;3.70;;;11.30;99.90;;;;;;5012039;28;20019;-72
2024/02/12 10:36:18;;;;;;;7.32;3.97;;;11.30;99.90;;;;;;5012124;28;20026;-72
2024/02/12 10:38:46;;;;;;;6.97;3.63;;;11.30;99.90;;;;;;5012648;28;20026;-72
2024/02/12 10:41:19;;;;;;;4.88;3.00;;;11.30;99.90;;;;;;5012923;28;20030;-71
2024/02/12 10:43:46;;;;;;;7.13;3.60;;;11.30;99.90;;;;;;5013237;28;20026;-73
2024/02/12 10:46:12;;;;;;;4.85;2.80;;;11.30;99.90;;;;;;5013105;28;20045;-72
2024/02/12 10:48:42;;;;;;;4.95;2.70;;;11.30;99.90;;;;;;5012623;28;20050;-73
2024/02/12 10:51:09;;;;;;;4.00;2.85;;;11.30;99.90;;;;;;5012590;28;20030;-72
2024/02/12 10:53:37;;;;;;;7.53;2.92;;;11.30;99.90;;;;;;5012481;28;20069;-73
2024/02/12 10:56:04;;;;;;;4.95;2.80;;;11.40;99.90;;;;;;5012131;28;20109;-72
2024/02/12 10:58:31;;;;;;;3.92;2.85;;;11.40;99.90;;;;;;5015180;28;20096;-72
2024/02/12 11:00:57;;;;;;;9.68;2.83;;;11.40;99.90;;;;;;5016300;28;20036;-71
2024/02/12 11:03:32;;;;;;;4.75;2.50;;;11.40;99.90;;;;;;5015466;28;20061;-72
2024/02/12 11:05:59;;;;;;;4.20;2.40;;;11.40;99.90;;;;;;5015784;28;20098;-72
2024/02/12 11:08:27;;;;;;;4.18;2.50;;;11.50;99.90;;;;;;5016031;28;20032;-71
2024/02/12 11:10:59;;;;;;;5.53;2.40;;;11.50;99.90;;;;;;5015767;28;20363;-72
2024/02/12 11:13:36;;;;;;;4.47;2.40;;;11.50;99.90;;;;;;5015808;28;20030;-73
2024/02/12 11:16:03;;;;;;;10.82;2.72;;;11.60;99.90;;;;;;5016115;28;20271;-74
2024/02/12 11:18:35;;;;;;;4.43;2.40;;;11.60;99.90;;;;;;4998848;28;20054;-74
2024/02/12 11:21:01;;;;;;;5.65;2.47;;;11.60;99.90;;;;;;4994231;28;20049;-74
2024/02/12 11:23:28;;;;;;;2.92;1.95;;;11.60;99.90;;;;;;4995507;28;20038;-72
2024/02/12 11:26:02;;;;;;;3.20;1.52;;;11.60;99.90;;;;;;4995725;28;20471;-73
2024/02/12 11:28:30;;;;;;;4.57;1.83;;;11.60;99.90;;;;;;4995464;28;20037;-71
2024/02/12 11:30:56;;;;;;;1.77;1.30;;;11.60;99.90;;;;;;4994755;28;20512;-73
2024/02/12 11:33:25;;;;;;;2.65;1.88;;;11.70;99.90;;;;;;4995073;28;20023;-72
2024/02/12 11:36:11;;;;;;;3.08;1.92;;;11.70;99.90;;;;;;4995061;28;20026;-73
2024/02/12 11:38:50;;;;;;;3.75;1.92;;;11.70;99.90;;;;;;4994985;28;20031;-72
2024/02/12 11:41:16;;;;;;;2.47;1.60;;;11.70;99.90;;;;;;4994853;28;20054;-73
2024/02/12 11:43:46;;;;;;;1.67;1.38;;;11.80;99.90;;;;;;4995150;28;20108;-73
2024/02/12 11:46:18;;;;;;;2.33;1.60;;;11.90;99.90;;;;;;4995585;28;20033;-72
2024/02/12 11:48:44;;;;;;;1.55;1.20;;;11.90;99.90;;;;;;5000345;28;20038;-73
2024/02/12 11:51:16;;;;;;;1.98;1.27;;;12.00;99.90;;;;;;5014312;28;20037;-74
2024/02/12 11:53:42;;;;;;;1.70;1.20;;;12.00;99.90;;;;;;5014560;28;20045;-72
2024/02/12 11:56:07;;;;;;;4.68;1.05;;;12.00;99.90;;;;;;5014321;28;20069;-73
2024/02/12 11:58:34;;;;;;;1.88;1.30;;;12.00;99.90;;;;;;5014471;28;20455;-73
2024/02/12 12:01:00;;;;;;;2.15;1.20;;;12.10;99.90;;;;;;5011192;28;20029;-73
2024/02/12 12:03:26;;;;;;;2.10;1.20;;;12.10;99.90;;;;;;5012259;28;20160;-73
2024/02/12 12:05:54;;;;;;;4.03;1.60;;;12.10;99.90;;;;;;5014882;28;20033;-73
2024/02/12 12:08:26;;;;;;;2.83;1.40;;;12.10;99.90;;;;;;5014891;28;20374;-73
2024/02/12 12:10:52;;;;;;;2.70;1.45;;;12.10;99.90;;;;;;5014910;28;20096;-73
2024/02/12 12:13:21;;;;;;;3.25;1.48;;;12.10;99.90;;;;;;5014965;28;20049;-73
2024/02/12 12:15:47;;;;;;;4.55;1.63;;;12.10;99.90;;;;;;5014690;28;20037;-74
2024/02/12 12:18:12;;;;;;;2.40;1.40;;;12.20;99.90;;;;;;4997223;28;20385;-74
2024/02/12 12:20:40;;;;;;;1.95;1.52;;;12.20;99.90;;;;;;5013258;28;20453;-73
2024/02/12 12:23:09;;;;;;;3.75;2.25;;;12.20;99.90;;;;;;5014574;28;20022;-74
2024/02/12 12:25:36;;;;;;;5.03;2.20;;;12.20;99.90;;;;;;5014231;28;20041;-74
2024/02/12 12:28:05;;;;;;;1.70;1.40;;;12.20;99.90;;;;;;5014052;28;20109;-74
2024/02/12 12:30:32;;;;;;;2.10;1.58;;;12.20;99.90;;;;;;5014262;28;20033;-74
2024/02/12 12:32:58;;;;;;;3.88;1.50;;;12.20;99.90;;;;;;5014223;28;20978;-74
2024/02/12 12:35:24;;;;;;;1.92;1.42;;;12.20;99.90;;;;;;5014046;28;20030;-74
2024/02/12 12:37:52;;;;;;;3.17;1.42;;;12.20;99.90;;;;;;5013846;28;20492;-74
2024/02/12 12:40:23;;;;;;;1.75;1.40;;;12.20;99.90;;;;;;5012892;28;20037;-74
2024/02/12 12:42:50;;;;;;;1.50;1.27;;;12.20;99.90;;;;;;5012833;28;20087;-73
2024/02/12 12:45:17;;;;;;;2.08;1.30;;;12.20;99.90;;;;;;5014089;28;20037;-72
2024/02/12 12:47:43;;;;;;;2.65;1.55;;;12.20;99.90;;;;;;5013901;28;20022;-74
2024/02/12 12:50:10;;;;;;;2.88;1.45;;;12.20;99.90;;;;;;5013657;28;20041;-74
2024/02/12 12:52:37;;;;;;;3.17;1.77;;;12.20;99.90;;;;;;5014221;28;20053;-74
2024/02/12 12:55:11;;;;;;;3.30;1.50;;;12.20;99.90;;;;;;5013807;28;20026;-68
2024/02/12 12:57:38;;;;;;;3.25;1.20;;;12.20;99.90;;;;;;5013729;28;20036;-74
2024/02/12 13:00:05;;;;;;;2.40;1.60;;;12.20;99.90;;;;;;5013799;28;20061;-73
2024/02/12 13:02:34;;;;;;;2.72;1.70;;;12.20;99.90;;;;;;5013941;28;20026;-74
2024/02/12 13:05:04;;;;;;;2.45;1.50;;;12.20;99.90;;;;;;5013828;28;20029;-73
2024/02/12 13:07:32;;;;;;;2.53;1.48;;;12.30;99.90;;;;;;5012106;28;20022;-75
2024/02/12 13:09:57;;;;;;;5.55;3.65;;;12.20;99.90;;;;;;5013447;28;20038;-74
2024/02/12 13:12:23;;;;;;;3.65;2.13;;;12.20;99.90;;;;;;5013663;28;20034;-75
2024/02/12 13:14:49;;;;;;;3.90;1.80;;;12.20;99.90;;;;;;5013627;28;20064;-73
2024/02/12 13:17:15;;;;;;;3.88;1.30;;;12.20;99.90;;;;;;5013523;28;20109;-75
2024/02/12 13:19:41;;;;;;;2.22;1.48;;;12.20;99.90;;;;;;5012040;28;20029;-74
2024/02/12 13:22:10;;;;;;;4.30;1.40;;;12.20;99.90;;;;;;5010411;28;20097;-73
2024/02/12 13:24:38;;;;;;;1.80;1.30;;;12.20;99.90;;;;;;5010823;28;20024;-74
2024/02/12 13:27:04;;;;;;;2.45;1.30;;;12.20;99.90;;;;;;5011787;28;20455;-76
2024/02/12 13:29:30;;;;;;;8.02;1.92;;;12.20;99.90;;;;;;5009990;28;20026;-72
2024/02/12 13:31:57;;;;;;;3.58;1.40;;;12.20;99.90;;;;;;5011285;28;20045;-73
2024/02/12 13:34:24;;;;;;;3.28;2.00;;;12.20;99.90;;;;;;5011810;28;20014;-71
2024/02/12 13:36:53;;;;;;;2.15;1.48;;;12.20;99.90;;;;;;5010717;28;20033;-73
2024/02/12 13:39:19;;;;;;;2.10;1.50;;;12.20;99.90;;;;;;5004504;28;20034;-74
2024/02/12 13:41:48;;;;;;;1.75;1.50;;;12.20;99.90;;;;;;5007199;28;20129;-73
2024/02/12 13:44:14;;;;;;;3.05;1.10;;;12.20;99.90;;;;;;5011587;28;20478;-74
2024/02/12 13:46:42;;;;;;;2.42;1.00;;;12.20;99.90;;;;;;5012951;28;20025;-73
2024/02/12 13:49:11;;;;;;;3.50;2.35;;;12.20;99.90;;;;;;5021615;28;20077;-73
2024/02/12 13:51:38;;;;;;;3.08;2.20;;;12.20;99.90;;;;;;5033170;28;20491;-74
2024/02/12 13:54:07;;;;;;;1.90;1.58;;;12.20;99.90;;;;;;5032742;28;20095;-75
2024/02/12 13:56:34;;;;;;;4.30;1.33;;;12.20;99.90;;;;;;5032830;28;20135;-73
2024/02/12 13:59:00;;;;;;;3.92;1.13;;;12.20;99.90;;;;;;5032520;28;20022;-77
2024/02/12 14:01:25;;;;;;;2.33;0.98;;;12.20;99.90;;;;;;5032268;28;20033;-77
2024/02/12 14:03:51;;;;;;;5.68;1.23;;;12.30;99.90;;;;;;5031088;28;20454;-76
2024/02/12 14:06:17;;;;;;;2.67;0.88;;;12.30;99.90;;;;;;5029608;28;20056;-74
2024/02/12 14:08:44;;;;;;;2.42;0.90;;;12.40;99.90;;;;;;5021625;28;20029;-75
2024/02/12 14:11:09;;;;;;;1.30;0.80;;;12.40;99.90;;;;;;5012685;28;20128;-76
2024/02/12 14:13:36;;;;;;;1.98;1.08;;;12.40;99.90;;;;;;5012698;28;20104;-76
2024/02/12 14:16:04;;;;;;;1.95;0.77;;;12.40;99.90;;;;;;5011522;28;20092;-76
2024/02/12 14:18:30;;;;;;;1.33;0.82;;;12.40;99.90;;;;;;5016811;28;20061;-76
2024/02/12 14:20:57;;;;;;;3.08;0.70;;;12.40;99.90;;;;;;5032332;28;20057;-76
2024/02/12 14:23:23;;;;;;;2.53;0.98;;;12.50;99.90;;;;;;5032273;28;20359;-76
2024/02/12 14:25:48;;;;;;;1.10;0.73;;;12.40;99.90;;;;;;5031135;28;20036;-75
2024/02/12 14:28:15;;;;;;;1.02;0.82;;;12.40;99.90;;;;;;5031585;28;20025;-74
2024/02/12 14:30:41;;;;;;;1.67;1.00;;;12.40;99.90;;;;;;5031432;28;20049;-75
2024/02/12 14:33:09;;;;;;;1.90;1.15;;;12.40;99.90;;;;;;5034970;28;20036;-76
2024/02/12 14:35:44;;;;;;;3.63;2.15;;;12.40;99.90;;;;;;5036470;28;20091;-76
2024/02/12 14:38:11;;;;;;;2.17;1.33;;;12.40;99.90;;;;;;5036366;28;20047;-76
2024/02/12 14:40:37;;;;;;;1.90;1.00;;;12.40;99.90;;;;;;5036230;28;20048;-76
2024/02/12 14:43:02;;;;;;;2.05;1.33;;;12.40;99.90;;;;;;5035741;28;20466;-75
2024/02/12 14:45:28;;;;;;;3.22;0.90;;;12.40;99.90;;;;;;5035683;28;20101;-76
2024/02/12 14:47:55;;;;;;;1.60;1.10;;;12.40;99.90;;;;;;5035974;28;20025;-75